sensor_id;sensor_type;location;lat;lon;timestamp;pressure;altitude;pressure_sealevel;temperature;humidity
67738;BME280;54534;43.612;1.572;2023-05-03T00:00:03;99314.44;;;20.05;51.75
67738;BME280;54534;43.612;1.572;2023-05-03T00:02:35;99309.25;;;20.03;51.76
67738;BME280;54534;43.612;1.572;2023-05-03T00:05:04;99309.25;;;20.03;51.90
67738;BME280;54534;43.612;1.572;2023-05-03T00:07:30;99309.25;;;20.03;51.77
67738;BME280;54534;43.612;1.572;2023-05-03T00:09:56;99306.56;;;20.03;51.68
67738;BME280;54534;43.612;1.572;2023-05-03T00:12:21;99301.34;;;20.01;51.91
67738;BME280;54534;43.612;1.572;2023-05-03T00:14:46;99297.84;;;20.01;51.79
67738;BME280;54534;43.612;1.572;2023-05-03T00:17:12;99301.34;;;20.01;52.09
67738;BME280;54534;43.612;1.572;2023-05-03T00:19:37;99301.34;;;20.01;52.16
67738;BME280;54534;43.612;1.572;2023-05-03T00:22:04;99298.81;;;20.00;52.18
67738;BME280;54534;43.612;1.572;2023-05-03T00:24:29;99298.81;;;20.00;52.03
67738;BME280;54534;43.612;1.572;2023-05-03T00:26:55;99289.84;;;20.01;52.28
67738;BME280;54534;43.612;1.572;2023-05-03T00:29:20;99295.19;;;20.01;52.21
67738;BME280;54534;43.612;1.572;2023-05-03T00:31:47;99299.66;;;20.00;52.13
67738;BME280;54534;43.612;1.572;2023-05-03T00:34:12;99290.81;;;20.00;52.11
67738;BME280;54534;43.612;1.572;2023-05-03T00:36:37;99287.19;;;20.01;52.37
67738;BME280;54534;43.612;1.572;2023-05-03T00:39:03;99287.28;;;19.99;52.23
67738;BME280;54534;43.612;1.572;2023-05-03T00:41:28;99288.28;;;19.98;52.31
67738;BME280;54534;43.612;1.572;2023-05-03T00:43:54;99268.75;;;19.98;52.16
67738;BME280;54534;43.612;1.572;2023-05-03T00:46:19;99269.59;;;19.98;52.19
67738;BME280;54534;43.612;1.572;2023-05-03T00:48:47;99269.72;;;19.97;52.25
67738;BME280;54534;43.612;1.572;2023-05-03T00:51:14;99263.41;;;19.98;52.17
67738;BME280;54534;43.612;1.572;2023-05-03T00:53:41;99258.19;;;19.96;52.34
67738;BME280;54534;43.612;1.572;2023-05-03T00:56:06;99252.03;;;19.96;52.19
67738;BME280;54534;43.612;1.572;2023-05-03T00:58:34;99253.84;;;19.95;52.22
67738;BME280;54534;43.612;1.572;2023-05-03T01:01:04;99238.69;;;19.96;52.10
67738;BME280;54534;43.612;1.572;2023-05-03T01:03:30;99243.19;;;19.95;52.07
67738;BME280;54534;43.612;1.572;2023-05-03T01:06:24;99235.16;;;19.95;52.12
67738;BME280;54534;43.612;1.572;2023-05-03T01:09:14;99232.63;;;19.94;52.10
67738;BME280;54534;43.612;1.572;2023-05-03T01:12:09;99229.94;;;19.94;51.99
67738;BME280;54534;43.612;1.572;2023-05-03T01:17:17;99216.75;;;19.92;51.95
67738;BME280;54534;43.612;1.572;2023-05-03T01:19:48;99207.19;;;19.89;52.02
67738;BME280;54534;43.612;1.572;2023-05-03T01:25:06;99216.88;;;19.90;51.95
67738;BME280;54534;43.612;1.572;2023-05-03T01:27:37;99203.66;;;19.89;51.94
67738;BME280;54534;43.612;1.572;2023-05-03T01:30:04;99203.66;;;19.89;51.94
67738;BME280;54534;43.612;1.572;2023-05-03T01:36:22;99206.34;;;19.89;51.71
67738;BME280;54534;43.612;1.572;2023-05-03T01:38:20;99201.16;;;19.87;51.82
67738;BME280;54534;43.612;1.572;2023-05-03T01:40:59;99202.81;;;19.88;51.88
67738;BME280;54534;43.612;1.572;2023-05-03T01:43:26;99204.78;;;19.86;51.87
67738;BME280;54534;43.612;1.572;2023-05-03T01:45:55;99202.09;;;19.86;51.98
67738;BME280;54534;43.612;1.572;2023-05-03T01:48:21;99201.25;;;19.86;51.91
67738;BME280;54534;43.612;1.572;2023-05-03T01:50:46;99195.91;;;19.86;51.80
67738;BME280;54534;43.612;1.572;2023-05-03T01:53:11;99193.13;;;19.87;51.75
67738;BME280;54534;43.612;1.572;2023-05-03T01:55:37;99186.09;;;19.86;51.51
67738;BME280;54534;43.612;1.572;2023-05-03T01:58:02;99186.09;;;19.86;51.60
67738;BME280;54534;43.612;1.572;2023-05-03T02:00:28;99186.09;;;19.86;51.57
67738;BME280;54534;43.612;1.572;2023-05-03T02:02:53;99180.75;;;19.86;51.57
67738;BME280;54534;43.612;1.572;2023-05-03T02:05:19;99182.72;;;19.84;51.33
67738;BME280;54534;43.612;1.572;2023-05-03T02:07:44;99182.59;;;19.86;51.60
67738;BME280;54534;43.612;1.572;2023-05-03T02:10:10;99179.06;;;19.85;51.47
67738;BME280;54534;43.612;1.572;2023-05-03T02:12:42;99178.25;;;19.85;51.58
67738;BME280;54534;43.612;1.572;2023-05-03T02:15:08;99180.91;;;19.85;51.46
67738;BME280;54534;43.612;1.572;2023-05-03T02:17:34;99172.91;;;19.85;51.55
67738;BME280;54534;43.612;1.572;2023-05-03T02:19:59;99166.72;;;19.84;51.61
67738;BME280;54534;43.612;1.572;2023-05-03T02:22:25;99172.06;;;19.84;51.76
67738;BME280;54534;43.612;1.572;2023-05-03T02:24:50;99164.06;;;19.84;51.57
67738;BME280;54534;43.612;1.572;2023-05-03T02:27:16;99158.72;;;19.84;51.53
67738;BME280;54534;43.612;1.572;2023-05-03T02:29:41;99157.88;;;19.84;51.77
67738;BME280;54534;43.612;1.572;2023-05-03T02:32:07;99165.88;;;19.84;51.47
67738;BME280;54534;43.612;1.572;2023-05-03T02:34:32;99155.19;;;19.84;51.50
67738;BME280;54534;43.612;1.572;2023-05-03T02:36:58;99158.81;;;19.83;51.64
67738;BME280;54534;43.612;1.572;2023-05-03T02:39:24;99154.34;;;19.83;51.48
67738;BME280;54534;43.612;1.572;2023-05-03T02:41:49;99156.16;;;19.83;51.32
67738;BME280;54534;43.612;1.572;2023-05-03T02:44:15;99155.34;;;19.82;51.29
67738;BME280;54534;43.612;1.572;2023-05-03T02:46:40;99158.00;;;19.82;51.41
67738;BME280;54534;43.612;1.572;2023-05-03T02:49:07;99152.66;;;19.82;51.53
67738;BME280;54534;43.612;1.572;2023-05-03T02:51:32;99152.66;;;19.82;51.35
67738;BME280;54534;43.612;1.572;2023-05-03T02:53:58;99142.13;;;19.81;51.07
67738;BME280;54534;43.612;1.572;2023-05-03T02:56:24;99142.81;;;19.83;51.20
67738;BME280;54534;43.612;1.572;2023-05-03T02:58:53;99137.63;;;19.81;51.13
67738;BME280;54534;43.612;1.572;2023-05-03T03:01:19;99137.63;;;19.81;51.28
67738;BME280;54534;43.612;1.572;2023-05-03T03:03:45;99134.97;;;19.81;51.10
67738;BME280;54534;43.612;1.572;2023-05-03T03:06:10;99133.25;;;19.80;51.06
67738;BME280;54534;43.612;1.572;2023-05-03T03:08:36;99126.25;;;19.79;50.98
67738;BME280;54534;43.612;1.572;2023-05-03T03:11:02;99135.13;;;19.80;51.04
67738;BME280;54534;43.612;1.572;2023-05-03T03:13:28;99130.59;;;19.80;51.05
67738;BME280;54534;43.612;1.572;2023-05-03T03:15:53;99133.25;;;19.80;51.06
67738;BME280;54534;43.612;1.572;2023-05-03T03:18:19;99142.25;;;19.79;51.14
67738;BME280;54534;43.612;1.572;2023-05-03T03:20:44;99133.25;;;19.80;50.98
67738;BME280;54534;43.612;1.572;2023-05-03T03:23:09;99128.06;;;19.78;50.98
67738;BME280;54534;43.612;1.572;2023-05-03T03:25:35;99134.25;;;19.79;50.94
67738;BME280;54534;43.612;1.572;2023-05-03T03:28:00;99134.25;;;19.79;50.99
67738;BME280;54534;43.612;1.572;2023-05-03T03:30:26;99137.91;;;19.78;50.88
67738;BME280;54534;43.612;1.572;2023-05-03T03:32:51;99133.41;;;19.78;50.91
67738;BME280;54534;43.612;1.572;2023-05-03T03:35:17;99125.56;;;19.77;51.18
67738;BME280;54534;43.612;1.572;2023-05-03T03:37:42;99136.22;;;19.77;51.06
67738;BME280;54534;43.612;1.572;2023-05-03T03:40:08;99136.22;;;19.77;50.89
67738;BME280;54534;43.612;1.572;2023-05-03T03:42:34;99130.88;;;19.77;51.04
67738;BME280;54534;43.612;1.572;2023-05-03T03:44:59;99131.00;;;19.75;51.07
67738;BME280;54534;43.612;1.572;2023-05-03T03:47:24;99126.50;;;19.76;51.01
67738;BME280;54534;43.612;1.572;2023-05-03T03:49:50;99132.69;;;19.76;50.96
67738;BME280;54534;43.612;1.572;2023-05-03T03:52:15;99133.66;;;19.75;50.95
67738;BME280;54534;43.612;1.572;2023-05-03T03:54:41;99136.34;;;19.75;50.93
67738;BME280;54534;43.612;1.572;2023-05-03T03:57:06;99127.47;;;19.75;50.86
67738;BME280;54534;43.612;1.572;2023-05-03T03:59:33;99128.34;;;19.75;50.96
67738;BME280;54534;43.612;1.572;2023-05-03T04:01:58;99130.16;;;19.75;50.86
67738;BME280;54534;43.612;1.572;2023-05-03T04:04:24;99130.16;;;19.75;51.09
67738;BME280;54534;43.612;1.572;2023-05-03T04:06:49;99127.47;;;19.75;51.02
67738;BME280;54534;43.612;1.572;2023-05-03T04:09:14;99131.00;;;19.75;50.92
67738;BME280;54534;43.612;1.572;2023-05-03T04:11:41;99132.00;;;19.74;50.95
67738;BME280;54534;43.612;1.572;2023-05-03T04:14:07;99137.34;;;19.74;50.90
67738;BME280;54534;43.612;1.572;2023-05-03T04:16:32;99130.16;;;19.75;50.80
67738;BME280;54534;43.612;1.572;2023-05-03T04:18:58;99132.81;;;19.75;50.94
67738;BME280;54534;43.612;1.572;2023-05-03T04:21:23;99136.47;;;19.74;50.76
67738;BME280;54534;43.612;1.572;2023-05-03T04:23:48;99135.50;;;19.75;50.67
67738;BME280;54534;43.612;1.572;2023-05-03T04:26:14;99140.13;;;19.73;50.73
67738;BME280;54534;43.612;1.572;2023-05-03T04:28:39;99139.16;;;19.74;50.80
67738;BME280;54534;43.612;1.572;2023-05-03T04:31:05;99131.25;;;19.72;50.76
67738;BME280;54534;43.612;1.572;2023-05-03T04:33:30;99143.63;;;19.73;50.84
67738;BME280;54534;43.612;1.572;2023-05-03T04:35:56;99137.44;;;19.73;50.89
67738;BME280;54534;43.612;1.572;2023-05-03T04:38:22;99139.25;;;19.72;50.59
67738;BME280;54534;43.612;1.572;2023-05-03T04:40:48;99137.44;;;19.73;50.65
67738;BME280;54534;43.612;1.572;2023-05-03T04:43:13;99133.09;;;19.72;50.78
67738;BME280;54534;43.612;1.572;2023-05-03T04:45:39;99136.75;;;19.71;50.71
67738;BME280;54534;43.612;1.572;2023-05-03T04:48:05;99139.41;;;19.71;50.83
67738;BME280;54534;43.612;1.572;2023-05-03T04:50:31;99146.44;;;19.72;50.81
67738;BME280;54534;43.612;1.572;2023-05-03T04:52:57;99142.94;;;19.71;50.54
67738;BME280;54534;43.612;1.572;2023-05-03T04:55:22;99143.03;;;19.70;50.68
67738;BME280;54534;43.612;1.572;2023-05-03T04:57:48;99147.41;;;19.71;50.59
67738;BME280;54534;43.612;1.572;2023-05-03T05:00:13;99143.03;;;19.70;50.67
67738;BME280;54534;43.612;1.572;2023-05-03T05:02:40;99143.03;;;19.70;50.78
67738;BME280;54534;43.612;1.572;2023-05-03T05:05:05;99138.56;;;19.70;50.71
67738;BME280;54534;43.612;1.572;2023-05-03T05:07:31;99147.41;;;19.71;50.68
67738;BME280;54534;43.612;1.572;2023-05-03T05:09:56;99141.22;;;19.70;50.77
67738;BME280;54534;43.612;1.572;2023-05-03T05:12:22;99141.22;;;19.70;50.78
67738;BME280;54534;43.612;1.572;2023-05-03T05:14:48;99149.22;;;19.70;50.89
67738;BME280;54534;43.612;1.572;2023-05-03T05:17:13;99148.38;;;19.70;50.99
67738;BME280;54534;43.612;1.572;2023-05-03T05:19:38;99148.38;;;19.70;51.11
67738;BME280;54534;43.612;1.572;2023-05-03T05:22:04;99152.75;;;19.71;50.98
67738;BME280;54534;43.612;1.572;2023-05-03T05:24:29;99148.38;;;19.70;50.99
67738;BME280;54534;43.612;1.572;2023-05-03T05:26:55;99144.88;;;19.69;50.90
67738;BME280;54534;43.612;1.572;2023-05-03T05:29:20;99147.56;;;19.69;51.09
67738;BME280;54534;43.612;1.572;2023-05-03T05:31:46;99154.72;;;19.69;50.94
67738;BME280;54534;43.612;1.572;2023-05-03T05:34:11;99158.22;;;19.69;51.31
67738;BME280;54534;43.612;1.572;2023-05-03T05:36:36;99162.72;;;19.69;51.60
67738;BME280;54534;43.612;1.572;2023-05-03T05:39:02;99161.84;;;19.68;51.46
67738;BME280;54534;43.612;1.572;2023-05-03T05:41:27;99162.72;;;19.69;51.28
67738;BME280;54534;43.612;1.572;2023-05-03T05:43:53;99168.03;;;19.69;51.41
67738;BME280;54534;43.612;1.572;2023-05-03T05:46:19;99168.03;;;19.69;51.41
67738;BME280;54534;43.612;1.572;2023-05-03T05:48:47;99167.19;;;19.68;51.82
67738;BME280;54534;43.612;1.572;2023-05-03T05:51:12;99171.69;;;19.67;51.59
67738;BME280;54534;43.612;1.572;2023-05-03T05:53:37;99167.19;;;19.68;51.14
67738;BME280;54534;43.612;1.572;2023-05-03T05:56:03;99176.16;;;19.67;51.15
67738;BME280;54534;43.612;1.572;2023-05-03T05:58:30;99171.69;;;19.67;50.94
67738;BME280;54534;43.612;1.572;2023-05-03T06:00:59;99178.81;;;19.67;51.32
67738;BME280;54534;43.612;1.572;2023-05-03T06:03:25;99171.94;;;19.64;51.23
67738;BME280;54534;43.612;1.572;2023-05-03T06:05:51;99168.31;;;19.65;51.05
67738;BME280;54534;43.612;1.572;2023-05-03T06:08:16;99167.44;;;19.65;50.99
67738;BME280;54534;43.612;1.572;2023-05-03T06:10:41;99161.25;;;19.64;51.03
67738;BME280;54534;43.612;1.572;2023-05-03T06:13:07;99166.59;;;19.64;51.01
67738;BME280;54534;43.612;1.572;2023-05-03T06:15:32;99169.16;;;19.66;51.07
67738;BME280;54534;43.612;1.572;2023-05-03T06:17:57;99173.63;;;19.65;51.05
67738;BME280;54534;43.612;1.572;2023-05-03T06:20:23;99168.31;;;19.65;51.07
67738;BME280;54534;43.612;1.572;2023-05-03T06:22:49;99174.59;;;19.64;51.27
67738;BME280;54534;43.612;1.572;2023-05-03T06:25:15;99166.59;;;19.64;51.10
67738;BME280;54534;43.612;1.572;2023-05-03T06:27:40;99167.44;;;19.65;51.09
67738;BME280;54534;43.612;1.572;2023-05-03T06:30:06;99168.31;;;19.65;51.03
67738;BME280;54534;43.612;1.572;2023-05-03T06:32:32;99163.81;;;19.66;51.04
67738;BME280;54534;43.612;1.572;2023-05-03T06:34:57;99172.66;;;19.66;51.06
67738;BME280;54534;43.612;1.572;2023-05-03T06:37:26;99171.81;;;19.66;51.18
67738;BME280;54534;43.612;1.572;2023-05-03T06:39:51;99164.78;;;19.65;50.94
67738;BME280;54534;43.612;1.572;2023-05-03T06:42:17;99174.50;;;19.66;50.87
67738;BME280;54534;43.612;1.572;2023-05-03T06:44:42;99165.78;;;19.64;50.78
67738;BME280;54534;43.612;1.572;2023-05-03T06:47:08;99171.13;;;19.64;50.88
67738;BME280;54534;43.612;1.572;2023-05-03T06:49:33;99174.59;;;19.64;50.96
67738;BME280;54534;43.612;1.572;2023-05-03T06:51:59;99172.94;;;19.63;50.90
67738;BME280;54534;43.612;1.572;2023-05-03T06:54:24;99175.59;;;19.63;50.69
67738;BME280;54534;43.612;1.572;2023-05-03T06:56:50;99169.41;;;19.63;50.92
67738;BME280;54534;43.612;1.572;2023-05-03T06:59:16;99167.59;;;19.63;50.72
67738;BME280;54534;43.612;1.572;2023-05-03T07:01:41;99163.13;;;19.64;50.89
67738;BME280;54534;43.612;1.572;2023-05-03T07:04:07;99170.25;;;19.63;50.87
67738;BME280;54534;43.612;1.572;2023-05-03T07:06:32;99163.13;;;19.64;51.01
67738;BME280;54534;43.612;1.572;2023-05-03T07:08:58;99166.59;;;19.64;50.93
67738;BME280;54534;43.612;1.572;2023-05-03T07:11:23;99166.59;;;19.64;50.92
67738;BME280;54534;43.612;1.572;2023-05-03T07:13:52;99162.97;;;19.65;50.83
67738;BME280;54534;43.612;1.572;2023-05-03T07:16:19;99157.63;;;19.65;50.78
67738;BME280;54534;43.612;1.572;2023-05-03T07:18:45;99154.97;;;19.65;50.64
67738;BME280;54534;43.612;1.572;2023-05-03T07:21:12;99159.34;;;19.66;50.72
67738;BME280;54534;43.612;1.572;2023-05-03T07:23:38;99158.47;;;19.66;50.88
67738;BME280;54534;43.612;1.572;2023-05-03T07:26:03;99152.28;;;19.65;50.78
67738;BME280;54534;43.612;1.572;2023-05-03T07:28:29;99158.59;;;19.64;50.64
67738;BME280;54534;43.612;1.572;2023-05-03T07:30:54;99158.47;;;19.66;50.50
67738;BME280;54534;43.612;1.572;2023-05-03T07:33:19;99164.66;;;19.66;50.67
67738;BME280;54534;43.612;1.572;2023-05-03T07:35:45;99158.47;;;19.66;50.73
67738;BME280;54534;43.612;1.572;2023-05-03T07:38:11;99166.34;;;19.67;50.68
67738;BME280;54534;43.612;1.572;2023-05-03T07:40:37;99163.81;;;19.66;50.77
67738;BME280;54534;43.612;1.572;2023-05-03T07:43:02;99162.81;;;19.67;50.56
67738;BME280;54534;43.612;1.572;2023-05-03T07:45:28;99160.16;;;19.67;50.62
67738;BME280;54534;43.612;1.572;2023-05-03T07:47:54;99164.66;;;19.66;50.37
67738;BME280;54534;43.612;1.572;2023-05-03T07:50:21;99158.34;;;19.67;50.62
67738;BME280;54534;43.612;1.572;2023-05-03T07:52:46;99161.00;;;19.67;50.49
67738;BME280;54534;43.612;1.572;2023-05-03T07:55:16;99161.84;;;19.68;50.51
67738;BME280;54534;43.612;1.572;2023-05-03T07:57:42;99161.00;;;19.67;50.66
67738;BME280;54534;43.612;1.572;2023-05-03T08:00:08;99150.34;;;19.67;50.57
67738;BME280;54534;43.612;1.572;2023-05-03T08:02:35;99150.34;;;19.67;50.47
67738;BME280;54534;43.612;1.572;2023-05-03T08:05:01;99150.34;;;19.67;50.54
67738;BME280;54534;43.612;1.572;2023-05-03T08:07:29;99146.81;;;19.67;50.52
67738;BME280;54534;43.612;1.572;2023-05-03T08:09:54;99153.00;;;19.67;50.56
67738;BME280;54534;43.612;1.572;2023-05-03T08:12:23;99145.00;;;19.67;50.53
67738;BME280;54534;43.612;1.572;2023-05-03T08:14:51;99143.19;;;19.68;50.39
67738;BME280;54534;43.612;1.572;2023-05-03T08:17:17;99139.66;;;19.67;50.57
67738;BME280;54534;43.612;1.572;2023-05-03T08:19:42;99139.66;;;19.67;50.56
67738;BME280;54534;43.612;1.572;2023-05-03T08:22:07;99131.66;;;19.67;50.40
67738;BME280;54534;43.612;1.572;2023-05-03T08:24:35;99133.38;;;19.69;50.33
67738;BME280;54534;43.612;1.572;2023-05-03T08:27:00;99136.03;;;19.69;50.29
67738;BME280;54534;43.612;1.572;2023-05-03T08:29:26;99130.69;;;19.69;50.33
67738;BME280;54534;43.612;1.572;2023-05-03T08:31:51;99130.69;;;19.69;50.46
67738;BME280;54534;43.612;1.572;2023-05-03T08:34:17;99126.22;;;19.69;50.36
67738;BME280;54534;43.612;1.572;2023-05-03T08:36:42;99126.22;;;19.69;50.32
67738;BME280;54534;43.612;1.572;2023-05-03T08:39:08;99129.72;;;19.70;50.21
67738;BME280;54534;43.612;1.572;2023-05-03T08:41:35;99132.38;;;19.70;50.30
67738;BME280;54534;43.612;1.572;2023-05-03T08:44:03;99127.03;;;19.70;50.26
67738;BME280;54534;43.612;1.572;2023-05-03T08:46:31;99126.22;;;19.69;50.36
67738;BME280;54534;43.612;1.572;2023-05-03T08:49:01;99128.03;;;19.69;50.22
67738;BME280;54534;43.612;1.572;2023-05-03T08:51:26;99128.03;;;19.69;50.36
67738;BME280;54534;43.612;1.572;2023-05-03T08:53:52;99119.19;;;19.68;50.03
67738;BME280;54534;43.612;1.572;2023-05-03T08:56:39;99119.03;;;19.70;50.09
67738;BME280;54534;43.612;1.572;2023-05-03T08:59:05;99115.41;;;19.71;50.19
67738;BME280;54534;43.612;1.572;2023-05-03T09:01:40;99120.75;;;19.71;49.94
67738;BME280;54534;43.612;1.572;2023-05-03T09:04:07;99116.38;;;19.70;50.25
67738;BME280;54534;43.612;1.572;2023-05-03T09:06:33;99120.75;;;19.71;50.07
67738;BME280;54534;43.612;1.572;2023-05-03T09:08:59;99123.41;;;19.71;50.37
67738;BME280;54534;43.612;1.572;2023-05-03T09:11:29;99130.44;;;19.72;50.26
67738;BME280;54534;43.612;1.572;2023-05-03T09:14:16;99132.25;;;19.71;50.08
67738;BME280;54534;43.612;1.572;2023-05-03T09:16:44;99122.56;;;19.70;50.19
67738;BME280;54534;43.612;1.572;2023-05-03T09:19:11;99126.91;;;19.71;50.13
67738;BME280;54534;43.612;1.572;2023-05-03T09:21:42;99126.91;;;19.71;50.16
67738;BME280;54534;43.612;1.572;2023-05-03T09:26:41;99120.75;;;19.71;50.11
67738;BME280;54534;43.612;1.572;2023-05-03T09:29:07;99118.91;;;19.71;50.12
67738;BME280;54534;43.612;1.572;2023-05-03T09:31:34;99110.06;;;19.71;50.19
67738;BME280;54534;43.612;1.572;2023-05-03T09:34:01;99107.25;;;19.72;50.18
67738;BME280;54534;43.612;1.572;2023-05-03T09:36:26;99118.91;;;19.71;49.98
67738;BME280;54534;43.612;1.572;2023-05-03T09:38:53;99115.25;;;19.72;50.08
67738;BME280;54534;43.612;1.572;2023-05-03T09:41:28;99110.78;;;19.73;50.09
67738;BME280;54534;43.612;1.572;2023-05-03T09:43:54;99121.44;;;19.73;50.18
67738;BME280;54534;43.612;1.572;2023-05-03T09:46:21;99114.28;;;19.73;50.24
67738;BME280;54534;43.612;1.572;2023-05-03T09:48:49;99114.16;;;19.75;50.01
67738;BME280;54534;43.612;1.572;2023-05-03T09:51:15;99105.31;;;19.74;50.06
67738;BME280;54534;43.612;1.572;2023-05-03T09:53:41;99115.84;;;19.76;49.97
67738;BME280;54534;43.612;1.572;2023-05-03T09:56:08;99108.81;;;19.75;50.13
67738;BME280;54534;43.612;1.572;2023-05-03T09:58:37;99108.81;;;19.75;50.01
67738;BME280;54534;43.612;1.572;2023-05-03T10:01:02;99112.31;;;19.75;50.01
67738;BME280;54534;43.612;1.572;2023-05-03T10:03:38;99106.88;;;19.77;49.99
67738;BME280;54534;43.612;1.572;2023-05-03T10:06:06;99101.66;;;19.75;50.09
67738;BME280;54534;43.612;1.572;2023-05-03T10:08:51;99106.88;;;19.77;49.83
67738;BME280;54534;43.612;1.572;2023-05-03T10:11:18;99097.88;;;19.78;49.85
67738;BME280;54534;43.612;1.572;2023-05-03T10:13:44;99090.88;;;19.77;49.88
67738;BME280;54534;43.612;1.572;2023-05-03T10:16:20;99085.53;;;19.77;49.85
67738;BME280;54534;43.612;1.572;2023-05-03T10:21:53;99088.91;;;19.79;49.82
67738;BME280;54534;43.612;1.572;2023-05-03T10:24:20;99091.69;;;19.77;49.84
67738;BME280;54534;43.612;1.572;2023-05-03T10:26:49;99087.19;;;19.78;49.81
67738;BME280;54534;43.612;1.572;2023-05-03T10:35:11;99074.88;;;19.77;49.81
67738;BME280;54534;43.612;1.572;2023-05-03T10:37:40;99074.88;;;19.77;49.92
67738;BME280;54534;43.612;1.572;2023-05-03T10:40:07;99065.16;;;19.76;49.77
67738;BME280;54534;43.612;1.572;2023-05-03T10:42:35;99071.19;;;19.78;50.00
67738;BME280;54534;43.612;1.572;2023-05-03T10:45:01;99072.19;;;19.77;49.93
67738;BME280;54534;43.612;1.572;2023-05-03T10:47:28;99075.69;;;19.77;49.83
67738;BME280;54534;43.612;1.572;2023-05-03T10:55:13;99073.88;;;19.78;49.81
67738;BME280;54534;43.612;1.572;2023-05-03T10:57:41;99065.88;;;19.78;49.78
67738;BME280;54534;43.612;1.572;2023-05-03T11:00:12;99070.34;;;19.77;49.83
67738;BME280;54534;43.612;1.572;2023-05-03T11:05:46;99069.38;;;19.78;49.81
67738;BME280;54534;43.612;1.572;2023-05-03T11:08:14;99066.72;;;19.78;49.96
67738;BME280;54534;43.612;1.572;2023-05-03T11:10:43;99063.91;;;19.80;49.84
67738;BME280;54534;43.612;1.572;2023-05-03T11:13:08;99063.06;;;19.80;49.73
67738;BME280;54534;43.612;1.572;2023-05-03T11:15:34;99056.91;;;19.79;49.98
67738;BME280;54534;43.612;1.572;2023-05-03T11:18:00;99056.03;;;19.78;49.90
67738;BME280;54534;43.612;1.572;2023-05-03T11:20:26;99053.38;;;19.78;49.83
67738;BME280;54534;43.612;1.572;2023-05-03T11:22:51;99051.56;;;19.79;49.94
67738;BME280;54534;43.612;1.572;2023-05-03T11:25:17;99045.38;;;19.78;49.92
67738;BME280;54534;43.612;1.572;2023-05-03T11:27:43;99047.06;;;19.80;49.88
67738;BME280;54534;43.612;1.572;2023-05-03T11:30:11;99044.41;;;19.80;49.81
67738;BME280;54534;43.612;1.572;2023-05-03T11:32:37;99042.56;;;19.80;49.84
67738;BME280;54534;43.612;1.572;2023-05-03T11:35:05;99030.91;;;19.81;49.75
67738;BME280;54534;43.612;1.572;2023-05-03T11:37:31;99033.59;;;19.81;49.46
67738;BME280;54534;43.612;1.572;2023-05-03T11:39:58;99037.94;;;19.82;49.90
67738;BME280;54534;43.612;1.572;2023-05-03T11:42:23;99038.91;;;19.81;49.79
67738;BME280;54534;43.612;1.572;2023-05-03T11:44:51;99033.59;;;19.81;49.96
67738;BME280;54534;43.612;1.572;2023-05-03T11:47:17;99030.78;;;19.83;49.81
67738;BME280;54534;43.612;1.572;2023-05-03T11:49:52;99028.94;;;19.83;49.82
67738;BME280;54534;43.612;1.572;2023-05-03T11:52:21;99032.47;;;19.84;49.63
67738;BME280;54534;43.612;1.572;2023-05-03T11:54:47;99026.28;;;19.83;49.87
67738;BME280;54534;43.612;1.572;2023-05-03T11:57:12;99020.09;;;19.83;49.79
67738;BME280;54534;43.612;1.572;2023-05-03T11:59:39;99021.94;;;19.82;49.82
67738;BME280;54534;43.612;1.572;2023-05-03T12:02:10;99020.94;;;19.83;49.92
67738;BME280;54534;43.612;1.572;2023-05-03T12:04:36;99020.09;;;19.83;49.85
67738;BME280;54534;43.612;1.572;2023-05-03T12:07:12;99020.94;;;19.83;49.64
67738;BME280;54534;43.612;1.572;2023-05-03T12:09:38;99017.44;;;19.83;49.82
67738;BME280;54534;43.612;1.572;2023-05-03T12:12:04;99019.13;;;19.84;49.85
67738;BME280;54534;43.612;1.572;2023-05-03T12:14:58;99019.97;;;19.84;49.83
67738;BME280;54534;43.612;1.572;2023-05-03T12:17:37;99027.97;;;19.84;49.63
67738;BME280;54534;43.612;1.572;2023-05-03T12:20:16;99018.28;;;19.83;49.64
67738;BME280;54534;43.612;1.572;2023-05-03T12:22:42;99015.63;;;19.83;49.69
67738;BME280;54534;43.612;1.572;2023-05-03T12:25:07;99013.78;;;19.84;49.81
67738;BME280;54534;43.612;1.572;2023-05-03T12:27:33;99009.31;;;19.84;49.78
67738;BME280;54534;43.612;1.572;2023-05-03T12:29:58;99003.13;;;19.84;49.67
67738;BME280;54534;43.612;1.572;2023-05-03T12:32:24;99003.97;;;19.84;49.91
67738;BME280;54534;43.612;1.572;2023-05-03T12:34:49;98994.28;;;19.83;49.77
67738;BME280;54534;43.612;1.572;2023-05-03T12:37:15;98992.44;;;19.84;49.78
67738;BME280;54534;43.612;1.572;2023-05-03T12:39:40;98994.16;;;19.85;49.86
67738;BME280;54534;43.612;1.572;2023-05-03T12:42:07;98996.81;;;19.85;49.91
67738;BME280;54534;43.612;1.572;2023-05-03T12:44:32;98990.63;;;19.84;49.85
67738;BME280;54534;43.612;1.572;2023-05-03T12:46:57;98993.16;;;19.86;49.87
67738;BME280;54534;43.612;1.572;2023-05-03T12:49:23;98994.00;;;19.86;49.83
67738;BME280;54534;43.612;1.572;2023-05-03T12:51:48;98989.63;;;19.85;49.88
67738;BME280;54534;43.612;1.572;2023-05-03T12:54:14;98976.28;;;19.85;49.88
67738;BME280;54534;43.612;1.572;2023-05-03T12:56:41;98981.63;;;19.85;49.95
67738;BME280;54534;43.612;1.572;2023-05-03T12:59:07;98975.31;;;19.86;49.80
67738;BME280;54534;43.612;1.572;2023-05-03T13:01:32;98977.13;;;19.86;49.92
67738;BME280;54534;43.612;1.572;2023-05-03T13:03:57;98977.13;;;19.86;49.86
67738;BME280;54534;43.612;1.572;2023-05-03T13:06:23;98972.66;;;19.86;49.87
67738;BME280;54534;43.612;1.572;2023-05-03T13:08:49;98963.81;;;19.86;49.86
67738;BME280;54534;43.612;1.572;2023-05-03T13:11:14;98960.28;;;19.85;49.86
67738;BME280;54534;43.612;1.572;2023-05-03T13:13:40;98960.28;;;19.85;50.00
67738;BME280;54534;43.612;1.572;2023-05-03T13:16:07;98960.28;;;19.85;50.00
67738;BME280;54534;43.612;1.572;2023-05-03T13:18:33;98956.66;;;19.86;49.85
67738;BME280;54534;43.612;1.572;2023-05-03T13:20:58;98956.50;;;19.88;49.90
67738;BME280;54534;43.612;1.572;2023-05-03T13:23:24;98958.34;;;19.87;49.93
67738;BME280;54534;43.612;1.572;2023-05-03T13:25:50;98959.31;;;19.86;49.94